KMGWKCKB

Guest
Details From KMGW - Morgantown Muni Walter L Bill Hart Fld
To KCKB - Harrison Marion Rgnl
Flight Number -
Tags Generated
Created
Modified
Stats Distance 26 nm / 48 km
Max Altitude 0 ft / 0 m
Waypoints 2
Social Downloads 0
Likes 0
Share VATSIM

Download

Looking for another format? Having issues loading an existing format? Contact us
Advertisement - Login to hide

Notes

Generated

Route

KMGW KCKB

ID Type Via Altitude Latitude Longitude Leg Dist Tot Dist Heading (true) Name
O KMGW APT - 0 ft / 0 m 39.63892˚ -79.91747˚ - 0 nm - MORGANTOWN MUNI WALTER L BILL HART FLD
O KCKB APT - 0 ft / 0 m 39.28779˚ -80.23288˚ 25 nm 25 nm 215° / 215° -

Altitude Profile

Advertisement - Login to hide

KMGW

Details ICAO KMGW (MGW)
Name MORGANTOWN MUNI WALTER L BILL HART FLD
Region United States
Timezone America/New_York (UTC-5.0)
Stats Elevation 1,248 ft / 380 m (AMSL)
Location 39.642606° -79.915774°
Runways 2
Magnetic Variation 9.185° W

METAR

KMGW 120953Z AUTO 24006G18KT 10SM BKN044 OVC050 06/M04 A2962 RMK AO2 SLP034 T00561039

Decode

TAF

KMGW 121007Z 1210/1306 24010G18KT P6SM OVC050 FM121200 23010G26KT 6SM -SN OVC015 FM121800 27012G25KT P6SM OVC025 FM122300 29015G25KT 5SM -SN OVC025

Decode

Departure Runways

ID Width Length Bearing (true) Bearing (mag) Surface Threshold Offset Overrun Length
05 75 ft / 23 m 2,768 ft / 844 m 44.75° 53.94° Asphalt 0 ft / 0 m 0 ft / 0 m
18 150 ft / 46 m 5,207 ft / 1,587 m 172.42° 181.61° Asphalt 0 ft / 0 m 0 ft / 0 m
23 75 ft / 23 m 2,768 ft / 844 m 224.75° 233.94° Asphalt 0 ft / 0 m 0 ft / 0 m
36 150 ft / 46 m 5,207 ft / 1,587 m 352.42° 1.61° Asphalt 0 ft / 0 m 0 ft / 0 m

KCKB

Details ICAO KCKB (CKB)
Name HARRISON MARION RGNL
Region United States
Timezone America/New_York (UTC-5.0)
Stats Elevation 1,217 ft / 371 m (AMSL)
Location 39.296642° -80.228080°
Runways 1
Magnetic Variation 8.908° W

METAR

KCKB 120953Z AUTO 27013G20KT 10SM OVC046 07/M03 A2963 RMK AO2 SLP033 T00671028

Decode

TAF

KCKB 120843Z 1209/1306 26011G19KT P6SM BKN060 FM121100 24011G22KT P6SM OVC040 FM121300 27012G24KT 4SM -SHSN OVC015 FM121800 28013G26KT P6SM -SHSN BKN020

Decode

Destination Runways

ID Width Length Bearing (true) Bearing (mag) Surface Threshold Offset Overrun Length
03 151 ft / 46 m 7,008 ft / 2,136 m 22.75° 31.66° Asphalt 0 ft / 0 m 0 ft / 0 m
21 151 ft / 46 m 7,008 ft / 2,136 m 202.75° 211.66° Asphalt 0 ft / 0 m 0 ft / 0 m

Approach Navaids

Runway Type Ident Frequency Range Bearing (true) Bearing (mag) Slope Elevation
21 Localiser ICKB 109.30 MHz 18 nm / 33 km 202.74° 211.65° - 1,173 ft / 358 m (AMSL)
21 Glidescope ICKB 109.30 MHz 10 nm / 19 km 202.75° 211.66° 3.00° 1,208 ft / 368 m (AMSL)

Popular Alternatives